Preview of NWS' New Version of Forecast
This preview is not operational and should not be used for support decisions.

Terminal Aerodrome Forecast (TAF)

Issued by National Weather Service (NWS)

                            
000
FTUS46 KSEW 141140
TAFBLI
TAF
KBLI 141140Z 1412/1512 19008KT P6SM -SHRA SCT005 OVC040
      TEMPO 1412/1416 -RA BKN005
     FM141800 16011G17KT P6SM -SHRA FEW025 OVC050
     FM150400 17012G17KT 5SM -RA SCT020 OVC025
     FM150700 17007KT 4SM -RA SCT015 OVC020=